Terminal Aerodrome Forecast
Issued by NWS Kansas City/Pleasant Hill, MO

Home | Current Version | Previous Version | Text Only | Print | Product List | Glossary On
Versions: 1 2 3 4 5 6 7 8 9 10 11 12 13 14 15 16 17
000
FTUS43 KEAX 260520
TAFMCI
TAF
KMCI 260520Z 2606/2706 13006KT P6SM SCT150
     FM261500 25005KT P6SM SCT090
     FM261700 34005KT P6SM SCT045
     FM270200 02003KT P6SM SCT200=

USA.gov is the U.S. government's official web portal to all federal, state and local government web resources and services.